Terminal Aerodrome Forecast
Issued by NWS Missoula, MT

Home | Current Version | Previous Version | Text Only | Print | Product List | Glossary On
Versions: 1 2 3 4 5 6 7 8 9 10 11 12 13
058
FTUS45 KMSO 261144
TAFBTM
TAF
KBTM 261144Z 2612/2712 VRB03KT P6SM OVC040
     FM261800 30007KT P6SM BKN060=

USA.gov is the U.S. government's official web portal to all federal, state and local government web resources and services.